createdAt,value
2018-08-16T00:00:36.263Z,22.70
2018-08-16T00:03:05.900Z,22.80
2018-08-16T00:05:34.742Z,22.80
2018-08-16T00:08:03.624Z,22.80
2018-08-16T00:10:32.475Z,22.80
2018-08-16T00:13:01.676Z,22.60
2018-08-16T00:15:30.625Z,22.60
2018-08-16T00:17:59.699Z,22.70
2018-08-16T00:20:28.927Z,22.80
2018-08-16T00:22:57.836Z,22.80
2018-08-16T00:25:26.705Z,22.80
2018-08-16T00:27:55.587Z,22.80
2018-08-16T00:30:24.484Z,22.70
2018-08-16T00:32:53.382Z,22.70
2018-08-16T00:35:22.283Z,22.50
2018-08-16T00:37:51.135Z,22.40
2018-08-16T00:40:20.318Z,22.30
2018-08-16T00:42:49.209Z,22.30
2018-08-16T00:45:18.073Z,22.30
2018-08-16T00:47:47.237Z,22.30
2018-08-16T00:50:16.519Z,22.30
2018-08-16T00:52:45.400Z,22.10
2018-08-16T00:55:14.914Z,22.20
2018-08-16T00:57:43.778Z,22.20
2018-08-16T01:00:14.892Z,22.20
2018-08-16T01:02:43.940Z,22.10
2018-08-16T01:05:13.349Z,22.00
2018-08-16T01:07:42.661Z,22.00
2018-08-16T01:10:13.179Z,22.00
2018-08-16T01:12:43.204Z,22.10
2018-08-16T01:15:15.226Z,22.10
2018-08-16T01:17:44.082Z,22.20
2018-08-16T01:20:13.445Z,22.20
2018-08-16T01:22:42.278Z,22.10
2018-08-16T01:25:11.948Z,22.00
2018-08-16T01:27:40.812Z,21.90
2018-08-16T01:30:10.235Z,21.80
2018-08-16T01:32:39.238Z,21.80
2018-08-16T01:35:09.572Z,21.90
2018-08-16T01:37:39.224Z,21.90
2018-08-16T01:40:08.958Z,21.90
2018-08-16T01:42:39.004Z,21.90
2018-08-16T01:45:08.397Z,22.00
2018-08-16T01:47:37.528Z,22.00
2018-08-16T01:50:07.143Z,22.00
2018-08-16T01:52:36.004Z,22.00
2018-08-16T01:55:05.438Z,22.10
2018-08-16T01:57:34.303Z,22.10
2018-08-16T02:00:04.646Z,22.10
2018-08-16T02:02:34.054Z,22.00
2018-08-16T02:05:03.126Z,21.70
2018-08-16T02:07:32.006Z,21.50
2018-08-16T02:10:01.017Z,21.50
2018-08-16T02:12:30.195Z,21.60
2018-08-16T02:14:59.052Z,21.50
2018-08-16T02:17:28.287Z,21.60
2018-08-16T02:19:57.803Z,21.70
2018-08-16T02:22:27.294Z,21.60
2018-08-16T02:24:56.502Z,21.50
2018-08-16T02:27:25.812Z,21.50
2018-08-16T02:29:55.010Z,21.50
2018-08-16T02:32:24.612Z,21.60
2018-08-16T02:34:53.538Z,21.60
2018-08-16T02:37:22.395Z,21.60
2018-08-16T02:39:51.974Z,21.60
2018-08-16T02:42:20.839Z,21.60
2018-08-16T02:44:49.858Z,21.60
2018-08-16T02:47:18.983Z,21.60
2018-08-16T02:49:47.845Z,21.60
2018-08-16T02:52:16.963Z,21.60
2018-08-16T02:54:46.080Z,21.60
2018-08-16T02:57:14.949Z,21.50
2018-08-16T02:59:43.917Z,21.30
2018-08-16T03:02:12.786Z,21.30
2018-08-16T03:04:41.646Z,21.20
2018-08-16T03:07:10.558Z,21.30
2018-08-16T03:09:39.425Z,21.40
2018-08-16T03:12:10.000Z,21.40
2018-08-16T03:14:39.307Z,21.40
2018-08-16T03:17:08.172Z,21.40
2018-08-16T03:19:37.087Z,21.50
2018-08-16T03:22:06.295Z,21.70
2018-08-16T03:24:35.156Z,21.70
2018-08-16T03:27:04.347Z,21.60
2018-08-16T03:29:33.210Z,21.40
2018-08-16T03:32:02.639Z,21.40
2018-08-16T03:34:31.556Z,21.40
2018-08-16T03:37:00.685Z,21.50
2018-08-16T03:39:29.524Z,21.60
2018-08-16T03:41:58.410Z,21.70
2018-08-16T03:44:27.368Z,21.70
2018-08-16T03:46:56.245Z,21.70
2018-08-16T03:49:25.155Z,21.50
2018-08-16T03:51:54.135Z,21.40
2018-08-16T03:54:23.056Z,21.20
2018-08-16T03:56:52.259Z,21.00
2018-08-16T03:59:21.454Z,21.10
2018-08-16T04:01:50.331Z,21.10
2018-08-16T04:04:19.699Z,21.20
2018-08-16T04:06:48.582Z,21.20
2018-08-16T04:09:17.778Z,21.20
2018-08-16T04:11:46.708Z,21.10
2018-08-16T04:14:15.959Z,21.10
2018-08-16T04:16:45.204Z,21.10
2018-08-16T04:19:14.124Z,20.90
2018-08-16T04:21:43.286Z,21.00
2018-08-16T04:24:12.146Z,21.00
2018-08-16T04:26:41.337Z,21.10
2018-08-16T04:29:10.289Z,21.20
2018-08-16T04:31:39.108Z,21.20
2018-08-16T04:34:07.973Z,21.10
2018-08-16T04:36:37.139Z,21.10
2018-08-16T04:39:07.086Z,21.00
2018-08-16T04:41:36.087Z,21.00
2018-08-16T04:44:04.926Z,20.90
2018-08-16T04:46:34.103Z,21.00
2018-08-16T04:49:03.267Z,21.00
2018-08-16T04:51:32.147Z,21.10
2018-08-16T04:54:01.315Z,21.10
2018-08-16T04:56:30.198Z,21.10
2018-08-16T04:58:59.086Z,21.10
2018-08-16T05:01:27.966Z,21.20
2018-08-16T05:03:56.883Z,21.40
2018-08-16T05:06:25.728Z,21.30
2018-08-16T05:08:54.591Z,21.30
2018-08-16T05:11:23.551Z,21.40
2018-08-16T05:13:52.436Z,21.60
2018-08-16T05:16:21.324Z,21.60
2018-08-16T05:18:50.447Z,21.60
2018-08-16T05:21:19.314Z,21.50
2018-08-16T05:23:48.750Z,21.60
2018-08-16T05:26:17.568Z,21.50
2018-08-16T05:28:46.711Z,21.50
2018-08-16T05:31:15.836Z,21.50
2018-08-16T05:33:44.744Z,21.60
2018-08-16T05:36:13.968Z,21.50
2018-08-16T05:38:42.843Z,21.50
2018-08-16T05:41:12.079Z,21.50
2018-08-16T05:43:40.951Z,21.60
2018-08-16T05:46:09.830Z,21.60
2018-08-16T05:48:39.028Z,21.70
2018-08-16T05:51:07.936Z,21.80
2018-08-16T05:53:36.903Z,22.10
2018-08-16T05:56:06.677Z,22.20
2018-08-16T05:58:35.549Z,22.30
2018-08-16T06:01:04.443Z,22.30
2018-08-16T06:03:33.349Z,22.30
2018-08-16T06:06:02.234Z,22.40
2018-08-16T06:08:31.447Z,22.30
2018-08-16T06:11:00.315Z,22.30
2018-08-16T06:13:29.253Z,22.60
2018-08-16T06:15:58.435Z,22.90
2018-08-16T06:18:27.311Z,23.40
2018-08-16T06:20:56.191Z,23.70
2018-08-16T06:23:25.090Z,23.90
2018-08-16T06:25:53.975Z,24.10
2018-08-16T06:28:22.862Z,24.40
2018-08-16T06:30:52.009Z,24.60
2018-08-16T06:33:20.876Z,24.80
2018-08-16T06:35:49.779Z,25.10
2018-08-16T06:38:19.198Z,25.20
2018-08-16T06:40:48.699Z,25.10
2018-08-16T06:43:18.028Z,25.00
2018-08-16T06:45:46.904Z,25.00
2018-08-16T06:48:16.292Z,25.20
2018-08-16T06:50:45.211Z,25.40
2018-08-16T06:53:14.517Z,25.60
2018-08-16T06:55:43.982Z,25.80
2018-08-16T06:58:12.885Z,25.90
2018-08-16T07:00:41.792Z,26.00
2018-08-16T07:03:11.127Z,26.30
2018-08-16T07:05:40.703Z,26.30
2018-08-16T07:08:10.732Z,26.30
2018-08-16T07:10:39.630Z,26.40
2018-08-16T07:13:08.591Z,26.40
2018-08-16T07:15:37.558Z,26.20
2018-08-16T07:18:06.420Z,26.20
2018-08-16T07:20:35.319Z,26.50
2018-08-16T07:23:04.199Z,26.80
2018-08-16T07:25:33.081Z,27.20
2018-08-16T07:28:01.953Z,27.40
2018-08-16T07:30:30.801Z,27.70
2018-08-16T07:33:00.213Z,27.80
2018-08-16T07:35:29.497Z,27.80
2018-08-16T07:37:58.345Z,27.80
2018-08-16T07:40:27.567Z,28.00
2018-08-16T07:42:56.422Z,27.80
2018-08-16T07:45:25.550Z,27.60
2018-08-16T07:47:56.307Z,27.90
2018-08-16T07:50:25.151Z,28.00
2018-08-16T07:52:54.026Z,28.10
2018-08-16T07:55:23.339Z,28.20
2018-08-16T07:57:52.215Z,28.30
2018-08-16T08:00:23.196Z,28.50
2018-08-16T08:02:52.331Z,28.80
2018-08-16T08:07:56.545Z,28.60
2018-08-16T08:10:25.435Z,28.90
2018-08-16T08:12:54.657Z,29.20
2018-08-16T08:15:23.531Z,29.30
2018-08-16T08:17:52.392Z,29.10
2018-08-16T08:20:21.256Z,28.90
2018-08-16T08:22:50.113Z,29.20
2018-08-16T08:25:19.117Z,29.70
2018-08-16T08:27:47.990Z,29.60
2018-08-16T08:30:17.191Z,29.70
2018-08-16T08:32:46.093Z,29.60
2018-08-16T08:35:16.927Z,29.80
2018-08-16T08:37:57.259Z,29.60
2018-08-16T08:40:26.104Z,29.60
2018-08-16T08:42:55.041Z,29.70
2018-08-16T08:45:23.919Z,30.00
2018-08-16T08:47:56.877Z,30.00
2018-08-16T08:50:26.354Z,30.00
2018-08-16T08:53:06.630Z,30.00
2018-08-16T08:55:47.013Z,30.00
2018-08-16T08:58:27.378Z,30.30
2018-08-16T09:00:56.283Z,30.60
2018-08-16T09:03:25.223Z,30.80
2018-08-16T09:05:54.102Z,31.00
2018-08-16T09:08:23.216Z,31.20
2018-08-16T09:11:12.072Z,31.20
2018-08-16T09:13:53.720Z,31.20
2018-08-16T09:16:25.519Z,31.10
2018-08-16T09:18:55.124Z,31.90
2018-08-16T09:21:24.045Z,32.60
2018-08-16T09:23:54.362Z,33.00
2018-08-16T09:26:28.547Z,32.80
2018-08-16T09:28:58.175Z,32.70
2018-08-16T09:31:38.575Z,32.80
2018-08-16T09:34:18.187Z,32.80
2018-08-16T09:36:47.213Z,32.50
2018-08-16T09:39:16.368Z,32.50
2018-08-16T09:41:45.256Z,32.40
2018-08-16T09:44:14.167Z,32.30
2018-08-16T09:47:01.925Z,32.00
2018-08-16T09:49:32.237Z,31.90
2018-08-16T09:52:01.210Z,31.70
2018-08-16T09:54:30.096Z,31.80
2018-08-16T09:57:00.362Z,32.20
2018-08-16T09:59:29.558Z,32.60
2018-08-16T10:01:58.867Z,32.80
2018-08-16T10:04:27.906Z,33.40
2018-08-16T10:06:56.814Z,34.00
2018-08-16T10:09:28.096Z,34.10
2018-08-16T10:11:57.781Z,34.00
2018-08-16T10:14:26.718Z,34.10
2018-08-16T10:16:55.650Z,34.40
2018-08-16T10:19:25.435Z,34.80
2018-08-16T10:21:54.410Z,34.90
2018-08-16T10:24:23.624Z,34.80
2018-08-16T10:26:52.540Z,34.60
2018-08-16T10:29:22.399Z,34.50
2018-08-16T10:31:51.374Z,34.60
2018-08-16T10:34:20.308Z,34.90
2018-08-16T10:36:49.162Z,34.80
2018-08-16T10:39:18.705Z,34.70
2018-08-16T10:41:47.653Z,34.70
2018-08-16T10:44:16.542Z,34.70
2018-08-16T10:46:45.418Z,34.70
2018-08-16T10:49:14.528Z,34.80
2018-08-16T10:51:43.408Z,35.10
2018-08-16T10:54:12.315Z,35.00
2018-08-16T10:56:41.177Z,34.20
2018-08-16T10:59:10.105Z,33.90
2018-08-16T11:01:38.967Z,33.80
2018-08-16T11:04:08.195Z,33.70
2018-08-16T11:06:37.383Z,33.80
2018-08-16T11:09:08.127Z,33.80
2018-08-16T11:11:37.294Z,34.40
2018-08-16T11:14:06.455Z,34.90
2018-08-16T11:16:35.371Z,35.20
2018-08-16T11:19:04.269Z,35.70
2018-08-16T11:21:33.128Z,35.80
2018-08-16T11:24:02.038Z,35.10
2018-08-16T11:26:30.979Z,34.70
2018-08-16T11:28:59.868Z,34.70
2018-08-16T11:31:28.843Z,35.00
2018-08-16T11:33:58.005Z,35.10
2018-08-16T11:36:27.278Z,34.90
2018-08-16T11:38:56.456Z,34.90
2018-08-16T11:41:25.313Z,35.10
2018-08-16T11:43:54.653Z,34.90
2018-08-16T11:46:23.973Z,34.70
2018-08-16T11:48:52.874Z,34.90
2018-08-16T11:51:21.752Z,34.90
2018-08-16T11:53:50.703Z,34.90
2018-08-16T11:56:19.986Z,34.80
2018-08-16T11:58:48.964Z,35.00
2018-08-16T12:01:18.413Z,35.30
2018-08-16T12:03:47.353Z,35.30
2018-08-16T12:06:16.282Z,35.00
2018-08-16T12:08:45.719Z,34.50
2018-08-16T12:11:14.687Z,34.60
2018-08-16T12:13:43.545Z,34.30
2018-08-16T12:16:12.696Z,34.50
2018-08-16T12:18:41.577Z,34.80
2018-08-16T12:21:10.559Z,35.10
2018-08-16T12:23:41.436Z,35.30
2018-08-16T12:26:10.321Z,35.20
2018-08-16T12:28:39.499Z,35.00
2018-08-16T12:31:08.471Z,35.10
2018-08-16T12:33:37.763Z,35.30
2018-08-16T12:36:07.039Z,35.20
2018-08-16T12:38:35.953Z,34.60
2018-08-16T12:41:05.422Z,34.30
2018-08-16T12:43:36.923Z,34.70
2018-08-16T12:46:05.857Z,35.10
2018-08-16T12:48:34.784Z,35.20
2018-08-16T12:51:03.669Z,35.20
2018-08-16T12:53:32.932Z,35.50
2018-08-16T12:56:03.129Z,35.50
2018-08-16T12:58:32.035Z,35.60
2018-08-16T13:01:00.931Z,35.30
2018-08-16T13:03:29.818Z,35.30
2018-08-16T13:05:58.977Z,35.40
2018-08-16T13:08:27.900Z,35.40
2018-08-16T13:10:56.915Z,35.10
2018-08-16T13:13:25.764Z,35.10
2018-08-16T13:15:54.730Z,34.90
2018-08-16T13:18:23.625Z,35.00
2018-08-16T13:20:52.512Z,34.90
2018-08-16T13:23:21.382Z,34.80
2018-08-16T13:25:50.276Z,35.10
2018-08-16T13:28:19.205Z,34.50
2018-08-16T13:30:48.091Z,34.30
2018-08-16T13:33:17.247Z,34.50
2018-08-16T13:35:46.307Z,34.20
2018-08-16T13:38:15.175Z,33.70
2018-08-16T13:40:44.355Z,33.60
2018-08-16T13:43:13.288Z,34.10
2018-08-16T13:45:42.198Z,34.60
2018-08-16T13:48:11.231Z,34.80
2018-08-16T13:50:40.123Z,34.40
2018-08-16T13:53:09.015Z,34.10
2018-08-16T13:55:38.620Z,34.00
2018-08-16T13:58:07.723Z,34.40
2018-08-16T14:00:36.617Z,34.20
2018-08-16T14:03:05.630Z,33.80
2018-08-16T14:05:34.594Z,33.80
2018-08-16T14:08:03.527Z,34.00
2018-08-16T14:10:32.710Z,34.00
2018-08-16T14:13:01.673Z,34.00
2018-08-16T14:15:30.548Z,34.00
2018-08-16T14:17:59.411Z,34.20
2018-08-16T14:20:28.290Z,34.40
2018-08-16T14:22:57.170Z,34.40
2018-08-16T14:25:26.045Z,34.10
2018-08-16T14:27:54.925Z,33.70
2018-08-16T14:30:24.095Z,33.10
2018-08-16T14:32:52.979Z,32.70
2018-08-16T14:35:21.899Z,32.70
2018-08-16T14:37:50.771Z,32.70
2018-08-16T14:40:19.999Z,32.40
2018-08-16T14:42:48.936Z,32.40
2018-08-16T14:45:17.865Z,32.40
2018-08-16T14:47:46.763Z,32.60
2018-08-16T14:50:15.728Z,32.60
2018-08-16T14:52:44.979Z,32.70
2018-08-16T14:55:13.844Z,32.80
2018-08-16T14:57:43.145Z,33.00
2018-08-16T15:00:12.033Z,33.00
2018-08-16T15:02:40.979Z,32.80
2018-08-16T15:05:10.153Z,32.50
2018-08-16T15:07:39.034Z,32.10
2018-08-16T15:10:08.712Z,32.20
2018-08-16T15:12:37.584Z,32.40
2018-08-16T15:15:06.538Z,32.40
2018-08-16T15:17:36.026Z,32.60
2018-08-16T15:20:05.899Z,32.60
2018-08-16T15:22:34.758Z,32.70
2018-08-16T15:25:03.695Z,32.70
2018-08-16T15:27:32.612Z,32.70
2018-08-16T15:30:01.503Z,32.70
2018-08-16T15:32:30.419Z,32.40
2018-08-16T15:34:59.343Z,32.20
2018-08-16T15:37:28.465Z,32.20
2018-08-16T15:39:57.675Z,32.20
2018-08-16T15:42:26.910Z,32.10
2018-08-16T15:44:56.100Z,32.10
2018-08-16T15:47:25.009Z,32.10
2018-08-16T15:49:53.917Z,32.20
2018-08-16T15:52:22.888Z,32.20
2018-08-16T15:54:52.124Z,32.10
2018-08-16T15:57:21.267Z,31.60
2018-08-16T15:59:51.093Z,31.30
2018-08-16T16:02:20.217Z,31.00
2018-08-16T16:04:49.222Z,30.90
2018-08-16T16:07:18.140Z,30.90
2018-08-16T16:09:47.142Z,30.90
2018-08-16T16:12:16.336Z,31.00
2018-08-16T16:14:45.232Z,31.10
2018-08-16T16:17:14.129Z,31.00
2018-08-16T16:19:43.280Z,30.70
2018-08-16T16:22:12.191Z,30.80
2018-08-16T16:24:41.155Z,30.70
2018-08-16T16:27:10.040Z,30.60
2018-08-16T16:29:38.957Z,30.60
2018-08-16T16:32:08.047Z,30.50
2018-08-16T16:34:37.143Z,30.40
2018-08-16T16:37:06.010Z,30.50
2018-08-16T16:39:35.021Z,30.30
2018-08-16T16:44:39.675Z,30.00
2018-08-16T16:47:09.091Z,29.90
2018-08-16T16:49:38.048Z,30.00
2018-08-16T16:52:07.580Z,30.00
2018-08-16T16:54:36.695Z,30.00
2018-08-16T16:57:05.652Z,30.00
2018-08-16T16:59:34.563Z,30.20
2018-08-16T17:02:03.472Z,30.20
2018-08-16T17:04:32.630Z,30.20
2018-08-16T17:07:01.886Z,30.30
2018-08-16T17:09:30.800Z,30.50
2018-08-16T17:12:00.321Z,30.30
2018-08-16T17:14:29.255Z,29.90
2018-08-16T17:16:58.415Z,29.70
2018-08-16T17:19:27.301Z,29.60
2018-08-16T17:21:56.226Z,29.50
2018-08-16T17:24:25.151Z,29.40
2018-08-16T17:26:54.053Z,29.30
2018-08-16T17:29:22.990Z,29.30
2018-08-16T17:31:51.864Z,29.30
2018-08-16T17:34:21.083Z,29.20
2018-08-16T17:36:50.158Z,29.00
2018-08-16T17:39:19.078Z,29.00
2018-08-16T17:41:47.963Z,28.90
2018-08-16T17:44:16.883Z,28.90
2018-08-16T17:46:46.022Z,28.90
2018-08-16T17:49:14.939Z,28.80
2018-08-16T17:51:43.845Z,29.00
2018-08-16T17:54:12.731Z,28.80
2018-08-16T17:56:41.883Z,28.70
2018-08-16T17:59:10.752Z,28.70
2018-08-16T18:01:39.733Z,28.60
2018-08-16T18:04:08.673Z,28.60
2018-08-16T18:06:37.843Z,28.50
2018-08-16T18:09:07.888Z,28.50
2018-08-16T18:11:37.143Z,28.40
2018-08-16T18:14:06.753Z,28.40
2018-08-16T18:16:36.021Z,28.40
2018-08-16T18:19:05.176Z,28.40
2018-08-16T18:21:34.100Z,28.30
2018-08-16T18:24:02.975Z,28.30
2018-08-16T18:26:32.418Z,28.30
2018-08-16T18:29:01.731Z,28.20
2018-08-16T18:31:30.785Z,28.20
2018-08-16T18:33:59.720Z,28.10
2018-08-16T18:36:28.857Z,28.10
2018-08-16T18:38:57.784Z,28.00
2018-08-16T18:41:26.706Z,28.00
2018-08-16T18:43:55.780Z,27.90
2018-08-16T18:46:25.018Z,27.80
2018-08-16T18:48:56.567Z,27.80
2018-08-16T18:51:26.420Z,27.80
2018-08-16T18:53:55.356Z,27.80
2018-08-16T18:56:24.309Z,27.70
2018-08-16T18:58:53.184Z,27.70
2018-08-16T19:01:23.150Z,27.60
2018-08-16T19:03:52.690Z,27.60
2018-08-16T19:06:21.593Z,27.50
2018-08-16T19:08:50.470Z,27.40
2018-08-16T19:11:19.373Z,27.40
2018-08-16T19:13:48.268Z,27.30
2018-08-16T19:16:17.317Z,27.30
2018-08-16T19:18:46.290Z,27.30
2018-08-16T19:21:15.278Z,27.30
2018-08-16T19:23:44.293Z,27.20
2018-08-16T19:26:13.218Z,27.20
2018-08-16T19:28:42.380Z,27.20
2018-08-16T19:31:11.403Z,27.10
2018-08-16T19:33:40.299Z,27.00
2018-08-16T19:36:09.552Z,27.00
2018-08-16T19:38:38.570Z,26.90
2018-08-16T19:41:07.472Z,26.90
2018-08-16T19:43:36.550Z,26.80
2018-08-16T19:46:05.726Z,26.80
2018-08-16T19:48:34.713Z,26.80
2018-08-16T19:51:03.501Z,26.70
2018-08-16T19:53:32.472Z,26.70
2018-08-16T19:56:01.357Z,26.70
2018-08-16T19:58:30.235Z,26.60
2018-08-16T20:00:59.724Z,26.60
2018-08-16T20:03:29.061Z,26.50
2018-08-16T20:05:57.941Z,26.40
2018-08-16T20:08:26.930Z,26.20
2018-08-16T20:10:55.942Z,26.20
2018-08-16T20:13:24.946Z,26.10
2018-08-16T20:15:53.859Z,26.00
2018-08-16T20:18:22.844Z,26.00
2018-08-16T20:20:52.163Z,26.00
2018-08-16T20:23:22.151Z,26.00
2018-08-16T20:25:51.014Z,25.90
2018-08-16T20:28:26.456Z,25.90
2018-08-16T20:30:55.372Z,25.80
2018-08-16T20:33:24.631Z,25.80
2018-08-16T20:35:53.548Z,25.70
2018-08-16T20:38:22.447Z,25.60
2018-08-16T20:40:51.332Z,25.50
2018-08-16T20:43:21.672Z,25.50
2018-08-16T20:45:50.572Z,25.40
2018-08-16T20:48:19.476Z,25.40
2018-08-16T20:50:48.486Z,25.50
2018-08-16T20:53:17.373Z,25.40
2018-08-16T20:55:46.319Z,25.30
2018-08-16T20:58:15.480Z,25.20
2018-08-16T21:00:44.508Z,25.20
2018-08-16T21:03:13.452Z,25.10
2018-08-16T21:05:42.352Z,25.10
2018-08-16T21:08:11.469Z,25.10
2018-08-16T21:10:40.372Z,25.00
2018-08-16T21:13:09.347Z,25.00
2018-08-16T21:15:38.296Z,25.00
2018-08-16T21:18:07.196Z,24.90
2018-08-16T21:20:36.096Z,24.80
2018-08-16T21:23:04.988Z,24.70
2018-08-16T21:25:34.230Z,24.70
2018-08-16T21:28:03.132Z,24.60
2018-08-16T21:30:32.332Z,24.60
2018-08-16T21:33:01.284Z,24.50
2018-08-16T21:35:30.162Z,24.50
2018-08-16T21:37:59.052Z,24.40
2018-08-16T21:40:28.320Z,24.40
2018-08-16T21:42:57.418Z,24.30
2018-08-16T21:45:26.319Z,24.30
2018-08-16T21:47:55.524Z,24.20
2018-08-16T21:50:24.726Z,24.20
2018-08-16T21:52:54.135Z,24.10
2018-08-16T21:55:23.119Z,24.00
2018-08-16T21:57:52.171Z,24.00
2018-08-16T22:00:44.157Z,24.10
2018-08-16T22:03:14.324Z,24.00
2018-08-16T22:05:51.814Z,24.00
2018-08-16T22:08:20.639Z,23.90
2018-08-16T22:10:50.023Z,23.90
2018-08-16T22:13:19.001Z,23.80
2018-08-16T22:15:49.042Z,23.80
2018-08-16T22:18:19.160Z,23.70
2018-08-16T22:20:48.760Z,23.70
2018-08-16T22:23:17.898Z,23.60
2018-08-16T22:25:46.843Z,23.50
2018-08-16T22:28:15.953Z,23.50
2018-08-16T22:30:44.828Z,23.40
2018-08-16T22:33:13.730Z,23.40
2018-08-16T22:35:42.845Z,23.40
2018-08-16T22:38:11.735Z,23.40
2018-08-16T22:40:40.630Z,23.40
2018-08-16T22:43:09.539Z,23.30
2018-08-16T22:45:38.442Z,23.20
2018-08-16T22:48:07.367Z,23.20
2018-08-16T22:50:36.388Z,23.20
2018-08-16T22:53:05.478Z,23.40
2018-08-16T22:55:34.538Z,23.40
2018-08-16T22:58:03.480Z,23.20
2018-08-16T23:00:32.506Z,23.20
2018-08-16T23:03:01.589Z,23.20
2018-08-16T23:05:30.479Z,23.10
2018-08-16T23:07:59.417Z,23.00
2018-08-16T23:10:28.531Z,23.00
2018-08-16T23:12:57.407Z,23.00
2018-08-16T23:15:26.286Z,22.90
2018-08-16T23:17:55.151Z,22.90
2018-08-16T23:20:24.275Z,22.90
2018-08-16T23:22:53.140Z,22.80
2018-08-16T23:25:22.021Z,22.80
2018-08-16T23:27:51.126Z,22.80
2018-08-16T23:30:19.993Z,22.80
2018-08-16T23:32:48.965Z,22.70
2018-08-16T23:35:17.961Z,22.70
2018-08-16T23:37:46.851Z,22.70
2018-08-16T23:40:15.732Z,22.70
2018-08-16T23:42:44.667Z,22.60
2018-08-16T23:45:13.623Z,22.60
2018-08-16T23:47:47.743Z,22.50
2018-08-16T23:50:16.647Z,22.50
2018-08-16T23:52:45.523Z,22.50
2018-08-16T23:55:14.419Z,22.50
2018-08-16T23:57:43.511Z,22.40
